createdAt,value
2023-02-28T00:01:34.889Z,93.60
2023-02-28T00:04:02.867Z,93.60
2023-02-28T00:06:30.403Z,93.60
2023-02-28T00:08:57.745Z,93.70
2023-02-28T00:11:25.150Z,93.60
2023-02-28T00:13:52.363Z,93.60
2023-02-28T00:16:23.050Z,93.60
2023-02-28T00:18:51.595Z,93.60
2023-02-28T00:21:19.564Z,93.70
2023-02-28T00:23:47.229Z,93.80
2023-02-28T00:26:14.689Z,94.00
2023-02-28T00:28:45.606Z,94.10
2023-02-28T00:31:12.965Z,94.20
2023-02-28T00:33:40.244Z,94.30
2023-02-28T00:36:11.438Z,94.40
2023-02-28T00:38:39.436Z,94.50
2023-02-28T00:41:08.133Z,94.80
2023-02-28T00:43:37.276Z,94.90
2023-02-28T00:46:05.265Z,95.00
2023-02-28T00:48:32.715Z,95.20
2023-02-28T00:51:00.221Z,95.30
2023-02-28T00:53:27.728Z,95.20
2023-02-28T00:55:55.009Z,95.30
2023-02-28T00:58:22.633Z,95.30
2023-02-28T01:00:50.349Z,95.40
2023-02-28T01:03:20.033Z,95.50
2023-02-28T01:05:47.654Z,95.50
2023-02-28T01:08:15.838Z,95.50
2023-02-28T01:10:43.557Z,95.50
2023-02-28T01:13:11.427Z,95.60
2023-02-28T01:15:50.019Z,95.60
2023-02-28T01:18:17.457Z,95.60
2023-02-28T01:20:45.431Z,95.60
2023-02-28T01:23:12.777Z,95.70
2023-02-28T01:25:40.569Z,95.70
2023-02-28T01:28:07.939Z,95.70
2023-02-28T01:30:37.732Z,95.70
2023-02-28T01:33:05.032Z,95.70
2023-02-28T01:35:36.827Z,95.80
2023-02-28T01:38:20.546Z,95.90
2023-02-28T01:40:49.059Z,95.90
2023-02-28T01:43:28.821Z,95.80
2023-02-28T01:45:57.936Z,95.80
2023-02-28T01:48:30.943Z,95.90
2023-02-28T01:51:02.340Z,95.90
2023-02-28T01:53:46.220Z,96.10
2023-02-28T01:56:21.385Z,96.20
2023-02-28T01:58:53.209Z,96.20
2023-02-28T02:01:23.256Z,96.30
2023-02-28T02:03:59.895Z,96.30
2023-02-28T02:06:31.278Z,96.40
2023-02-28T02:08:58.595Z,96.40
2023-02-28T02:11:26.872Z,96.40
2023-02-28T02:14:12.454Z,96.50
2023-02-28T02:16:46.535Z,96.50
2023-02-28T02:19:38.499Z,96.60
2023-02-28T02:22:44.372Z,96.60
2023-02-28T02:25:39.254Z,96.60
2023-02-28T02:28:44.188Z,96.60
2023-02-28T02:31:31.086Z,96.60
2023-02-28T02:34:23.721Z,96.70
2023-02-28T02:37:17.542Z,96.70
2023-02-28T02:40:02.924Z,96.50
2023-02-28T02:42:47.890Z,96.50
2023-02-28T02:45:20.706Z,96.50
2023-02-28T02:47:49.274Z,96.50
2023-02-28T02:50:26.948Z,96.40
2023-02-28T02:52:58.904Z,96.40
2023-02-28T02:55:27.265Z,96.30
2023-02-28T02:58:02.249Z,96.20
2023-02-28T03:01:04.649Z,96.20
2023-02-28T03:03:35.148Z,96.10
2023-02-28T03:06:04.815Z,96.10
2023-02-28T03:08:38.184Z,96.00
2023-02-28T03:11:09.999Z,96.00
2023-02-28T03:13:53.096Z,95.90
2023-02-28T03:16:35.309Z,95.70
2023-02-28T03:19:24.824Z,95.60
2023-02-28T03:22:13.962Z,95.50
2023-02-28T03:24:58.437Z,95.20
2023-02-28T03:27:47.977Z,95.10
2023-02-28T03:30:33.312Z,95.00
2023-02-28T03:33:03.619Z,94.90
2023-02-28T03:35:41.272Z,94.90
2023-02-28T03:38:21.090Z,94.90
2023-02-28T03:40:54.605Z,94.90
2023-02-28T03:43:30.582Z,94.90
2023-02-28T03:46:00.482Z,95.00
2023-02-28T03:48:46.721Z,95.00
2023-02-28T03:51:20.344Z,95.00
2023-02-28T03:53:59.178Z,95.00
2023-02-28T03:56:37.535Z,95.10
2023-02-28T03:59:27.935Z,95.50
2023-02-28T04:01:56.262Z,95.30
2023-02-28T04:04:23.709Z,95.50
2023-02-28T04:07:01.362Z,95.60
2023-02-28T04:09:28.809Z,95.60
2023-02-28T04:11:59.730Z,95.80
2023-02-28T04:14:27.978Z,96.30
2023-02-28T04:16:55.426Z,96.50
2023-02-28T04:19:28.662Z,96.80
2023-02-28T04:21:56.538Z,96.80
2023-02-28T04:24:26.685Z,97.00
2023-02-28T04:26:56.503Z,97.00
2023-02-28T04:29:29.463Z,97.20
2023-02-28T04:32:00.643Z,97.30
2023-02-28T04:34:32.959Z,97.40
2023-02-28T04:37:16.978Z,97.50
2023-02-28T04:39:44.852Z,97.50
2023-02-28T04:42:13.434Z,97.70
2023-02-28T04:44:40.717Z,97.60
2023-02-28T04:47:08.062Z,97.60
2023-02-28T04:49:36.487Z,97.50
2023-02-28T04:52:03.847Z,97.40
2023-02-28T04:54:31.162Z,97.40
2023-02-28T04:56:58.468Z,97.30
2023-02-28T04:59:25.733Z,97.20
2023-02-28T05:01:53.261Z,97.10
2023-02-28T05:04:20.561Z,97.00
2023-02-28T05:06:47.886Z,96.90
2023-02-28T05:09:15.103Z,96.80
2023-02-28T05:11:42.776Z,96.70
2023-02-28T05:14:15.098Z,96.70
2023-02-28T05:16:42.929Z,96.60
2023-02-28T05:19:10.382Z,96.60
2023-02-28T05:21:40.191Z,96.70
2023-02-28T05:24:12.462Z,97.00
2023-02-28T05:26:42.702Z,96.80
2023-02-28T05:29:10.851Z,96.80
2023-02-28T05:31:39.491Z,96.80
2023-02-28T05:34:06.918Z,96.80
2023-02-28T05:36:34.722Z,96.80
2023-02-28T05:39:02.055Z,96.80
2023-02-28T05:41:29.765Z,96.80
2023-02-28T05:43:58.837Z,96.80
2023-02-28T05:46:26.132Z,97.00
2023-02-28T05:48:53.521Z,96.60
2023-02-28T05:51:20.867Z,96.40
2023-02-28T05:53:49.249Z,96.20
2023-02-28T05:56:16.748Z,96.10
2023-02-28T05:58:44.011Z,95.90
2023-02-28T06:01:36.511Z,95.90
2023-02-28T06:04:06.240Z,95.60
2023-02-28T06:06:36.986Z,95.50
2023-02-28T06:09:07.700Z,95.50
2023-02-28T06:11:35.062Z,95.40
2023-02-28T06:14:03.267Z,95.20
2023-02-28T06:16:32.523Z,95.20
2023-02-28T06:19:02.243Z,95.00
2023-02-28T06:21:30.839Z,95.10
2023-02-28T06:23:59.483Z,94.90
2023-02-28T06:26:26.868Z,94.90
2023-02-28T06:28:54.722Z,94.90
2023-02-28T06:31:23.071Z,94.70
2023-02-28T06:33:51.025Z,94.70
2023-02-28T06:36:18.984Z,94.70
2023-02-28T06:38:46.743Z,94.80
2023-02-28T06:41:14.041Z,94.60
2023-02-28T06:43:43.186Z,94.70
2023-02-28T06:46:14.490Z,94.90
2023-02-28T06:48:46.678Z,94.60
2023-02-28T06:51:17.150Z,94.60
2023-02-28T06:53:44.733Z,94.60
2023-02-28T06:56:14.910Z,94.50
2023-02-28T06:58:42.708Z,94.30
2023-02-28T07:01:10.166Z,94.40
2023-02-28T07:03:37.909Z,94.30
2023-02-28T07:06:06.924Z,94.40
2023-02-28T07:08:35.979Z,94.20
2023-02-28T07:11:03.953Z,94.10
2023-02-28T07:13:31.455Z,93.90
2023-02-28T07:16:06.628Z,93.70
2023-02-28T07:18:34.683Z,93.40
2023-02-28T07:21:07.562Z,93.40
2023-02-28T07:23:35.512Z,93.10
2023-02-28T07:26:02.763Z,93.10
2023-02-28T07:28:30.128Z,92.90
2023-02-28T07:30:57.442Z,92.50
2023-02-28T07:33:25.002Z,92.40
2023-02-28T07:35:52.342Z,92.20
2023-02-28T07:38:19.748Z,91.90
2023-02-28T07:40:46.993Z,91.80
2023-02-28T07:43:14.195Z,91.50
2023-02-28T07:45:41.458Z,91.60
2023-02-28T07:48:10.874Z,91.50
2023-02-28T07:50:38.590Z,91.30
2023-02-28T07:53:06.079Z,90.90
2023-02-28T07:55:33.368Z,90.60
2023-02-28T07:58:01.332Z,90.30
2023-02-28T08:00:29.977Z,89.60
2023-02-28T08:02:57.232Z,90.00
2023-02-28T08:05:24.523Z,89.60
2023-02-28T08:07:51.769Z,88.90
2023-02-28T08:10:19.145Z,88.50
2023-02-28T08:12:46.342Z,87.90
2023-02-28T08:15:13.599Z,87.80
2023-02-28T08:17:40.798Z,87.60
2023-02-28T08:20:10.131Z,86.60
2023-02-28T08:22:37.332Z,86.00
2023-02-28T08:25:05.000Z,85.70
2023-02-28T08:27:32.246Z,84.90
2023-02-28T08:29:59.462Z,84.30
2023-02-28T08:32:30.164Z,84.10
2023-02-28T08:34:58.059Z,83.80
2023-02-28T08:37:25.577Z,83.40
2023-02-28T08:39:55.999Z,82.50
2023-02-28T08:42:24.909Z,81.40
2023-02-28T08:44:52.213Z,80.70
2023-02-28T08:47:20.081Z,80.10
2023-02-28T08:49:47.453Z,79.50
2023-02-28T08:52:14.898Z,79.50
2023-02-28T08:54:42.135Z,78.90
2023-02-28T08:57:09.389Z,78.00
2023-02-28T08:59:36.694Z,77.30
2023-02-28T09:02:04.158Z,76.90
2023-02-28T09:04:34.003Z,76.10
2023-02-28T09:07:01.424Z,75.40
2023-02-28T09:09:28.621Z,74.50
2023-02-28T09:11:57.592Z,74.80
2023-02-28T09:14:24.955Z,74.40
2023-02-28T09:16:53.813Z,73.20
2023-02-28T09:19:21.382Z,72.50
2023-02-28T09:21:48.609Z,71.80
2023-02-28T09:24:16.197Z,71.90
2023-02-28T09:26:56.332Z,71.30
2023-02-28T09:29:23.957Z,71.50
2023-02-28T09:31:51.218Z,71.80
2023-02-28T09:34:18.500Z,71.40
2023-02-28T09:36:46.915Z,71.30
2023-02-28T09:39:16.488Z,71.30
2023-02-28T09:41:51.993Z,71.40
2023-02-28T09:44:39.653Z,71.40
2023-02-28T09:47:22.806Z,71.00
2023-02-28T09:49:50.424Z,70.80
2023-02-28T09:52:27.807Z,70.40
2023-02-28T09:54:55.785Z,69.90
2023-02-28T09:57:36.542Z,69.50
2023-02-28T10:00:18.252Z,68.80
2023-02-28T10:03:04.699Z,68.50
2023-02-28T10:05:43.499Z,68.40
2023-02-28T10:08:46.319Z,68.60
2023-02-28T10:11:17.650Z,68.50
2023-02-28T10:13:53.890Z,68.10
2023-02-28T10:16:29.294Z,67.60
2023-02-28T10:19:15.693Z,66.90
2023-02-28T10:22:00.790Z,66.80
2023-02-28T10:24:34.176Z,66.50
2023-02-28T10:27:17.633Z,66.70
2023-02-28T10:29:56.067Z,66.90
2023-02-28T10:32:29.181Z,67.00
2023-02-28T10:35:08.495Z,67.20
2023-02-28T10:37:39.657Z,66.30
2023-02-28T10:40:29.984Z,66.30
2023-02-28T10:43:03.167Z,66.00
2023-02-28T10:45:37.094Z,66.00
2023-02-28T10:48:34.650Z,65.90
2023-02-28T10:51:04.987Z,65.80
2023-02-28T10:53:57.599Z,65.70
2023-02-28T10:56:27.953Z,66.20
2023-02-28T10:59:22.914Z,65.70
2023-02-28T11:01:52.850Z,65.40
2023-02-28T11:04:24.082Z,65.80
2023-02-28T11:07:05.143Z,65.70
2023-02-28T11:09:36.594Z,65.50
2023-02-28T11:12:08.365Z,65.40
2023-02-28T11:14:52.553Z,65.50
2023-02-28T11:17:23.984Z,66.00
2023-02-28T11:19:54.054Z,65.80
2023-02-28T11:22:26.000Z,65.40
2023-02-28T11:24:56.148Z,65.50
2023-02-28T11:27:30.519Z,65.30
2023-02-28T11:29:58.586Z,65.70
2023-02-28T11:32:29.925Z,65.80
2023-02-28T11:35:12.437Z,66.60
2023-02-28T11:37:40.571Z,66.80
2023-02-28T11:40:25.512Z,66.70
2023-02-28T11:43:02.645Z,66.20
2023-02-28T11:45:48.814Z,65.90
2023-02-28T11:48:26.919Z,66.50
2023-02-28T11:51:16.927Z,66.60
2023-02-28T11:54:02.242Z,66.40
2023-02-28T11:56:38.300Z,66.20
2023-02-28T11:59:35.040Z,66.50
2023-02-28T12:02:25.330Z,66.00
2023-02-28T12:05:11.273Z,65.90
2023-02-28T12:08:06.124Z,65.80
2023-02-28T12:10:52.061Z,66.80
2023-02-28T12:13:35.424Z,65.90
2023-02-28T12:16:41.208Z,65.10
2023-02-28T12:19:08.393Z,65.00
2023-02-28T12:22:01.143Z,64.40
2023-02-28T12:24:46.641Z,64.60
2023-02-28T12:27:17.912Z,65.00
2023-02-28T12:29:58.252Z,64.20
2023-02-28T12:32:40.300Z,63.60
2023-02-28T12:35:24.617Z,63.10
2023-02-28T12:38:02.944Z,63.20
2023-02-28T12:40:44.574Z,63.10
2023-02-28T12:43:14.525Z,62.90
2023-02-28T12:46:05.531Z,63.00
2023-02-28T12:48:47.696Z,62.80
2023-02-28T12:51:17.846Z,62.50
2023-02-28T12:53:54.346Z,61.90
2023-02-28T12:56:33.691Z,62.10
2023-02-28T12:59:16.278Z,62.50
2023-02-28T13:02:10.254Z,62.70
2023-02-28T13:04:57.696Z,62.60
2023-02-28T13:07:53.420Z,62.20
2023-02-28T13:10:21.087Z,62.30
2023-02-28T13:12:53.796Z,62.30
2023-02-28T13:15:25.764Z,62.30
2023-02-28T13:17:55.843Z,62.60
2023-02-28T13:20:47.680Z,62.20
2023-02-28T13:23:59.076Z,62.60
2023-02-28T13:26:32.395Z,62.60
2023-02-28T13:29:05.321Z,62.60
2023-02-28T13:31:35.202Z,62.40
2023-02-28T13:34:03.327Z,62.40
2023-02-28T13:36:32.595Z,62.60
2023-02-28T13:39:21.030Z,62.70
2023-02-28T13:41:49.036Z,62.20
2023-02-28T13:44:19.404Z,61.40
2023-02-28T13:46:49.935Z,60.90
2023-02-28T13:49:26.578Z,60.80
2023-02-28T13:51:54.679Z,60.70
2023-02-28T13:54:59.507Z,60.80
2023-02-28T13:57:35.678Z,60.90
2023-02-28T14:00:27.860Z,60.10
2023-02-28T14:03:12.321Z,60.20
2023-02-28T14:05:40.047Z,60.20
2023-02-28T14:08:16.466Z,60.20
2023-02-28T14:10:47.804Z,60.30
2023-02-28T14:13:46.107Z,60.50
2023-02-28T14:16:30.995Z,60.30
2023-02-28T14:19:10.306Z,60.40
2023-02-28T14:21:44.433Z,60.50
2023-02-28T14:24:24.744Z,60.80
2023-02-28T14:27:10.858Z,60.60
2023-02-28T14:29:44.673Z,60.80
2023-02-28T14:32:20.376Z,61.30
2023-02-28T14:35:13.481Z,61.40
2023-02-28T14:37:43.584Z,61.30
2023-02-28T14:40:30.654Z,61.10
2023-02-28T14:43:04.510Z,61.20
2023-02-28T14:45:34.592Z,61.40
2023-02-28T14:48:04.986Z,61.20
2023-02-28T14:50:35.937Z,61.10
2023-02-28T14:53:04.474Z,61.00
2023-02-28T14:55:38.175Z,61.00
2023-02-28T14:58:07.948Z,61.00
2023-02-28T15:00:38.406Z,60.80
2023-02-28T15:03:22.104Z,60.50
2023-02-28T15:05:58.911Z,60.20
2023-02-28T15:08:30.028Z,60.10
2023-02-28T15:10:59.238Z,60.70
2023-02-28T15:13:52.630Z,60.10
2023-02-28T15:16:25.253Z,60.00
2023-02-28T15:18:57.688Z,59.60
2023-02-28T15:21:34.608Z,59.80
2023-02-28T15:24:05.788Z,59.70
2023-02-28T15:26:38.675Z,60.00
2023-02-28T15:29:08.592Z,60.30
2023-02-28T15:31:55.897Z,60.50
2023-02-28T15:34:43.083Z,60.70
2023-02-28T15:37:33.413Z,60.60
2023-02-28T15:40:24.360Z,60.40
2023-02-28T15:43:16.496Z,60.20
2023-02-28T15:45:49.945Z,60.40
2023-02-28T15:48:23.875Z,60.70
2023-02-28T15:51:10.741Z,60.80
2023-02-28T15:53:57.091Z,60.90
2023-02-28T15:56:31.458Z,61.00
2023-02-28T15:59:05.663Z,60.90
2023-02-28T16:01:37.780Z,61.00
2023-02-28T16:04:08.156Z,61.10
2023-02-28T16:06:43.969Z,61.20
2023-02-28T16:09:16.433Z,61.50
2023-02-28T16:11:49.646Z,61.50
2023-02-28T16:14:27.841Z,61.80
2023-02-28T16:16:58.055Z,61.90
2023-02-28T16:19:25.447Z,62.00
2023-02-28T16:21:52.689Z,62.10
2023-02-28T16:24:20.151Z,62.20
2023-02-28T16:26:52.432Z,62.10
2023-02-28T16:29:31.939Z,62.20
2023-02-28T16:32:00.589Z,62.20
2023-02-28T16:34:28.434Z,62.20
2023-02-28T16:36:55.698Z,62.30
2023-02-28T16:39:22.860Z,62.30
2023-02-28T16:41:51.888Z,62.50
2023-02-28T16:44:34.769Z,62.40
2023-02-28T16:47:03.752Z,62.60
2023-02-28T16:49:31.303Z,62.60
2023-02-28T16:51:58.677Z,62.80
2023-02-28T16:54:26.335Z,63.00
2023-02-28T16:56:53.844Z,63.10
2023-02-28T16:59:25.183Z,63.00
2023-02-28T17:01:52.991Z,63.20
2023-02-28T17:04:20.419Z,63.40
2023-02-28T17:06:47.780Z,63.90
2023-02-28T17:09:22.967Z,64.10
2023-02-28T17:11:51.830Z,64.10
2023-02-28T17:14:19.112Z,64.20
2023-02-28T17:16:47.403Z,64.30
2023-02-28T17:19:16.560Z,64.40
2023-02-28T17:21:44.468Z,64.50
2023-02-28T17:24:22.093Z,64.80
2023-02-28T17:26:57.393Z,65.10
2023-02-28T17:29:25.437Z,65.00
2023-02-28T17:31:53.148Z,65.00
2023-02-28T17:34:20.897Z,65.10
2023-02-28T17:36:50.037Z,65.30
2023-02-28T17:39:25.265Z,65.40
2023-02-28T17:41:53.474Z,65.60
2023-02-28T17:44:22.196Z,65.70
2023-02-28T17:46:50.463Z,65.80
2023-02-28T17:49:18.863Z,65.90
2023-02-28T17:51:46.902Z,66.10
2023-02-28T17:54:15.089Z,66.10
2023-02-28T17:56:44.027Z,66.00
2023-02-28T17:59:13.099Z,66.10
2023-02-28T18:01:40.599Z,66.30
2023-02-28T18:04:08.048Z,66.40
2023-02-28T18:06:47.031Z,66.80
2023-02-28T18:09:24.507Z,67.20
2023-02-28T18:11:52.801Z,67.80
2023-02-28T18:14:23.606Z,68.70
2023-02-28T18:16:51.423Z,69.20
2023-02-28T18:19:19.275Z,70.20
2023-02-28T18:21:49.432Z,69.70
2023-02-28T18:24:17.698Z,70.30
2023-02-28T18:26:45.289Z,70.90
2023-02-28T18:29:24.789Z,71.20
2023-02-28T18:31:53.377Z,71.60
2023-02-28T18:34:21.346Z,72.10
2023-02-28T18:36:50.899Z,72.20
2023-02-28T18:39:18.643Z,72.30
2023-02-28T18:41:45.981Z,72.90
2023-02-28T18:44:19.993Z,73.00
2023-02-28T18:46:49.804Z,73.00
2023-02-28T18:49:17.728Z,73.30
2023-02-28T18:51:46.445Z,73.50
2023-02-28T18:54:15.455Z,73.90
2023-02-28T18:56:43.546Z,74.10
2023-02-28T18:59:11.385Z,74.30
2023-02-28T19:01:39.133Z,74.40
2023-02-28T19:04:06.649Z,74.50
2023-02-28T19:06:34.917Z,75.00
2023-02-28T19:09:04.110Z,74.80
2023-02-28T19:11:32.168Z,75.10
2023-02-28T19:13:59.504Z,75.10
2023-02-28T19:16:27.911Z,75.60
2023-02-28T19:18:56.109Z,75.90
2023-02-28T19:21:24.865Z,75.90
2023-02-28T19:23:52.368Z,76.20
2023-02-28T19:26:22.289Z,76.20
2023-02-28T19:28:49.858Z,76.30
2023-02-28T19:31:20.891Z,76.50
2023-02-28T19:33:48.348Z,76.90
2023-02-28T19:36:16.134Z,76.90
2023-02-28T19:38:44.864Z,77.20
2023-02-28T19:41:14.221Z,77.30
2023-02-28T19:43:41.590Z,77.40
2023-02-28T19:46:11.810Z,77.50
2023-02-28T19:48:39.570Z,77.60
2023-02-28T19:51:09.741Z,77.80
2023-02-28T19:53:38.875Z,78.00
2023-02-28T19:56:07.014Z,78.20
2023-02-28T19:58:35.378Z,78.30
2023-02-28T20:01:11.067Z,78.40
2023-02-28T20:03:38.520Z,78.80
2023-02-28T20:06:09.842Z,78.90
2023-02-28T20:08:38.028Z,79.00
2023-02-28T20:11:07.642Z,79.20
2023-02-28T20:13:35.543Z,79.30
2023-02-28T20:16:06.178Z,79.40
2023-02-28T20:18:34.167Z,79.50
2023-02-28T20:21:02.046Z,79.60
2023-02-28T20:23:29.651Z,79.80
2023-02-28T20:26:03.078Z,80.20
2023-02-28T20:28:30.400Z,80.30
2023-02-28T20:30:58.086Z,80.70
2023-02-28T20:33:25.503Z,80.80
2023-02-28T20:36:02.200Z,80.80
2023-02-28T20:38:29.516Z,81.10
2023-02-28T20:40:59.703Z,81.10
2023-02-28T20:43:27.231Z,81.30
2023-02-28T20:45:58.248Z,81.30
2023-02-28T20:48:25.849Z,81.60
2023-02-28T20:50:55.107Z,81.60
2023-02-28T20:53:24.173Z,81.70
2023-02-28T20:55:55.647Z,82.00
2023-02-28T20:58:24.751Z,82.40
2023-02-28T21:00:59.041Z,82.40
2023-02-28T21:03:26.290Z,82.80
2023-02-28T21:06:02.334Z,82.70
2023-02-28T21:08:30.061Z,82.80
2023-02-28T21:10:57.687Z,83.60
2023-02-28T21:13:26.738Z,83.60
2023-02-28T21:15:54.442Z,84.30
2023-02-28T21:18:22.361Z,84.30
2023-02-28T21:20:50.085Z,84.40
2023-02-28T21:23:17.529Z,84.50
2023-02-28T21:25:45.039Z,84.60
2023-02-28T21:28:12.279Z,84.50
2023-02-28T21:30:39.924Z,84.50
2023-02-28T21:33:07.290Z,84.60
2023-02-28T21:35:34.506Z,84.60
2023-02-28T21:38:02.842Z,84.60
2023-02-28T21:40:30.518Z,84.80
2023-02-28T21:42:57.748Z,85.00
2023-02-28T21:45:25.044Z,85.10
2023-02-28T21:47:52.400Z,85.80
2023-02-28T21:50:19.616Z,85.90
2023-02-28T21:52:46.841Z,85.90
2023-02-28T21:55:14.278Z,85.80
2023-02-28T21:57:41.718Z,86.10
2023-02-28T22:00:11.409Z,86.70
2023-02-28T22:02:41.607Z,86.60
2023-02-28T22:05:09.164Z,86.90
2023-02-28T22:07:36.471Z,87.20
2023-02-28T22:10:04.108Z,87.30
2023-02-28T22:12:31.384Z,87.40
2023-02-28T22:14:58.669Z,87.50
2023-02-28T22:17:25.939Z,87.90
2023-02-28T22:19:53.281Z,87.80
2023-02-28T22:22:21.111Z,88.00
2023-02-28T22:24:48.379Z,88.60
2023-02-28T22:27:15.671Z,88.60
2023-02-28T22:29:42.876Z,88.60
2023-02-28T22:32:11.462Z,88.80
2023-02-28T22:34:38.773Z,88.90
2023-02-28T22:37:06.081Z,89.30
2023-02-28T22:39:33.297Z,89.50
2023-02-28T22:42:00.447Z,89.60
2023-02-28T22:44:27.651Z,89.90
2023-02-28T22:46:55.011Z,90.00
2023-02-28T22:49:22.496Z,90.10
2023-02-28T22:51:49.794Z,90.20
2023-02-28T22:54:17.500Z,90.20
2023-02-28T22:56:44.855Z,90.30
2023-02-28T22:59:14.741Z,90.30
2023-02-28T23:01:43.937Z,90.40
2023-02-28T23:04:14.721Z,90.50
2023-02-28T23:06:43.953Z,90.60
2023-02-28T23:09:14.689Z,90.80
2023-02-28T23:11:46.846Z,91.00
2023-02-28T23:14:15.660Z,91.20
2023-02-28T23:16:54.483Z,91.20
2023-02-28T23:19:32.571Z,91.40
2023-02-28T23:22:01.374Z,91.40
2023-02-28T23:24:30.846Z,91.40
2023-02-28T23:27:01.112Z,91.60
2023-02-28T23:29:28.718Z,91.90
2023-02-28T23:31:56.646Z,91.90
2023-02-28T23:34:27.931Z,92.00
2023-02-28T23:36:56.168Z,92.20
2023-02-28T23:39:25.139Z,92.30
2023-02-28T23:41:52.979Z,92.30
2023-02-28T23:44:20.174Z,92.40
2023-02-28T23:46:51.428Z,92.50
2023-02-28T23:49:20.024Z,92.50
2023-02-28T23:51:49.307Z,92.80
2023-02-28T23:54:17.766Z,93.00
2023-02-28T23:56:45.627Z,92.90
2023-02-28T23:59:12.932Z,93.10
